createdAt,value
2023-04-19T00:00:57.901Z,100811.83
2023-04-19T00:02:00.855Z,100808.74
2023-04-19T00:03:04.381Z,100806.00
2023-04-19T00:04:08.938Z,100805.36
2023-04-19T00:05:13.883Z,100799.84
2023-04-19T00:06:17.488Z,100801.58
2023-04-19T00:07:20.463Z,100803.80
2023-04-19T00:08:23.408Z,100797.86
2023-04-19T00:09:26.454Z,100800.98
2023-04-19T00:10:29.276Z,100803.70
2023-04-19T00:11:32.261Z,100798.11
2023-04-19T00:12:35.141Z,100803.38
2023-04-19T00:13:38.514Z,100802.08
2023-04-19T00:14:41.398Z,100807.05
2023-04-19T00:15:44.330Z,100803.94
2023-04-19T00:16:47.195Z,100801.33
2023-04-19T00:17:50.261Z,100806.61
2023-04-19T00:18:53.196Z,100800.20
2023-04-19T00:19:56.989Z,100800.33
2023-04-19T00:21:00.116Z,100802.88
2023-04-19T00:22:03.071Z,100799.34
2023-04-19T00:23:05.985Z,100803.68
2023-04-19T00:24:08.962Z,100804.77
2023-04-19T00:25:11.833Z,100803.08
2023-04-19T00:26:15.959Z,100802.35
2023-04-19T00:27:19.403Z,100803.98
2023-04-19T00:28:22.326Z,100805.90
2023-04-19T00:29:25.269Z,100805.98
2023-04-19T00:30:28.273Z,100803.41
2023-04-19T00:31:31.240Z,100799.58
2023-04-19T00:32:34.639Z,100803.94
2023-04-19T00:33:37.511Z,100799.62
2023-04-19T00:34:40.486Z,100795.36
2023-04-19T00:35:43.360Z,100801.01
2023-04-19T00:36:46.254Z,100793.59
2023-04-19T00:37:49.107Z,100786.72
2023-04-19T00:38:51.916Z,100789.67
2023-04-19T00:39:55.008Z,100785.48
2023-04-19T00:40:59.129Z,100783.66
2023-04-19T00:42:02.440Z,100784.25
2023-04-19T00:43:05.372Z,100780.05
2023-04-19T00:44:09.964Z,100773.23
2023-04-19T00:45:13.165Z,100778.09
2023-04-19T00:46:16.165Z,100777.98
2023-04-19T00:47:19.622Z,100776.44
2023-04-19T00:48:22.677Z,100773.20
2023-04-19T00:49:26.926Z,100768.41
2023-04-19T00:50:30.684Z,100774.44
2023-04-19T00:51:34.372Z,100772.16
2023-04-19T00:52:37.280Z,100766.44
2023-04-19T00:53:40.891Z,100766.86
2023-04-19T00:54:45.354Z,100772.53
2023-04-19T00:55:51.520Z,100764.79
2023-04-19T00:56:54.399Z,100759.93
2023-04-19T00:57:57.651Z,100759.55
2023-04-19T00:59:00.567Z,100760.02
2023-04-19T01:00:06.730Z,100760.73
2023-04-19T01:01:09.670Z,100757.77
2023-04-19T01:02:12.956Z,100758.54
2023-04-19T01:03:17.117Z,100754.69
2023-04-19T01:04:20.445Z,100753.02
2023-04-19T01:05:23.720Z,100748.80
2023-04-19T01:06:28.292Z,100746.77
2023-04-19T01:07:33.998Z,100750.22
2023-04-19T01:08:36.938Z,100750.77
2023-04-19T01:09:46.663Z,100747.80
2023-04-19T01:10:49.750Z,100746.40
2023-04-19T01:11:52.662Z,100753.39
2023-04-19T01:12:55.611Z,100755.04
2023-04-19T01:13:58.693Z,100751.16
2023-04-19T01:15:02.888Z,100753.27
2023-04-19T01:16:07.025Z,100749.25
2023-04-19T01:17:11.008Z,100744.14
2023-04-19T01:18:14.222Z,100747.48
2023-04-19T01:19:18.945Z,100745.58
2023-04-19T01:20:21.895Z,100746.98
2023-04-19T01:21:24.759Z,100746.16
2023-04-19T01:22:28.389Z,100745.15
2023-04-19T01:23:31.388Z,100746.39
2023-04-19T01:24:34.645Z,100743.75
2023-04-19T01:25:38.192Z,100741.52
2023-04-19T01:26:41.042Z,100742.16
2023-04-19T01:27:44.556Z,100742.45
2023-04-19T01:28:47.466Z,100740.64
2023-04-19T01:29:52.696Z,100743.85
2023-04-19T01:30:55.767Z,100745.02
2023-04-19T01:31:58.667Z,100741.77
2023-04-19T01:33:03.244Z,100743.08
2023-04-19T01:34:06.403Z,100745.33
2023-04-19T01:35:11.523Z,100744.00
2023-04-19T01:36:14.502Z,100738.36
2023-04-19T01:37:18.041Z,100741.80
2023-04-19T01:38:21.003Z,100740.19
2023-04-19T01:39:27.449Z,100738.73
2023-04-19T01:40:30.500Z,100737.68
2023-04-19T01:41:34.113Z,100737.91
2023-04-19T01:42:36.981Z,100731.66
2023-04-19T01:43:39.834Z,100733.90
2023-04-19T01:44:42.709Z,100734.70
2023-04-19T01:45:46.059Z,100738.69
2023-04-19T01:46:48.969Z,100735.48
2023-04-19T01:47:52.767Z,100744.44
2023-04-19T01:48:55.792Z,100733.33
2023-04-19T01:49:59.142Z,100735.54
2023-04-19T01:51:02.101Z,100736.55
2023-04-19T01:52:05.157Z,100735.85
2023-04-19T01:53:08.016Z,100743.95
2023-04-19T01:54:11.051Z,100743.23
2023-04-19T01:55:13.917Z,100742.77
2023-04-19T01:56:16.804Z,100744.86
2023-04-19T01:57:19.693Z,100735.65
2023-04-19T01:58:23.478Z,100736.61
2023-04-19T01:59:26.436Z,100741.27
2023-04-19T02:00:29.522Z,100735.46
2023-04-19T02:01:32.440Z,100739.66
2023-04-19T02:02:39.147Z,100744.63
2023-04-19T02:03:42.938Z,100736.16
2023-04-19T02:04:46.010Z,100729.80
2023-04-19T02:05:49.475Z,100720.35
2023-04-19T02:06:52.453Z,100718.98
2023-04-19T02:07:55.529Z,100717.90
2023-04-19T02:08:58.485Z,100728.25
2023-04-19T02:10:01.436Z,100719.77
2023-04-19T02:11:08.881Z,100725.14
2023-04-19T02:12:11.805Z,100728.77
2023-04-19T02:13:14.867Z,100729.27
2023-04-19T02:14:18.044Z,100723.65
2023-04-19T02:15:21.028Z,100729.02
2023-04-19T02:16:24.452Z,100722.78
2023-04-19T02:17:27.789Z,100725.87
2023-04-19T02:18:30.870Z,100717.84
2023-04-19T02:19:33.749Z,100719.05
2023-04-19T02:20:36.656Z,100716.99
2023-04-19T02:21:39.974Z,100714.30
2023-04-19T02:22:43.934Z,100713.42
2023-04-19T02:23:47.285Z,100721.02
2023-04-19T02:24:51.175Z,100717.46
2023-04-19T02:25:54.093Z,100712.39
2023-04-19T02:26:57.021Z,100710.02
2023-04-19T02:27:59.881Z,100709.66
2023-04-19T02:29:05.572Z,100705.77
2023-04-19T02:30:09.990Z,100709.73
2023-04-19T02:31:13.059Z,100711.71
2023-04-19T02:32:16.008Z,100707.10
2023-04-19T02:33:18.917Z,100704.45
2023-04-19T02:34:21.768Z,100703.56
2023-04-19T02:35:24.653Z,100702.11
2023-04-19T02:36:27.522Z,100704.54
2023-04-19T02:37:31.610Z,100703.00
2023-04-19T02:38:34.498Z,100698.15
2023-04-19T02:39:37.638Z,100700.98
2023-04-19T02:40:40.702Z,100696.05
2023-04-19T02:41:43.671Z,100695.99
2023-04-19T02:42:46.589Z,100690.67
2023-04-19T02:43:49.442Z,100689.48
2023-04-19T02:44:52.307Z,100683.93
2023-04-19T02:45:55.290Z,100684.52
2023-04-19T02:46:58.295Z,100686.08
2023-04-19T02:48:01.250Z,100688.89
2023-04-19T02:49:04.369Z,100686.83
2023-04-19T02:50:07.823Z,100686.46
2023-04-19T02:51:18.071Z,100685.54
2023-04-19T02:52:27.836Z,100679.86
2023-04-19T02:53:31.065Z,100679.36
2023-04-19T02:54:34.350Z,100681.60
2023-04-19T02:55:37.304Z,100673.50
2023-04-19T02:56:42.977Z,100674.64
2023-04-19T02:57:45.890Z,100672.83
2023-04-19T02:58:48.867Z,100674.39
2023-04-19T02:59:51.990Z,100677.05
2023-04-19T03:00:55.121Z,100668.77
2023-04-19T03:01:58.378Z,100670.35
2023-04-19T03:03:04.145Z,100669.09
2023-04-19T03:04:07.433Z,100667.51
2023-04-19T03:05:10.902Z,100665.48
2023-04-19T03:06:13.892Z,100661.84
2023-04-19T03:07:17.151Z,100667.92
2023-04-19T03:08:19.995Z,100656.94
2023-04-19T03:09:22.842Z,100654.98
2023-04-19T03:10:26.272Z,100655.89
2023-04-19T03:11:29.192Z,100651.02
2023-04-19T03:12:32.033Z,100649.77
2023-04-19T03:13:35.001Z,100656.88
2023-04-19T03:14:37.972Z,100654.34
2023-04-19T03:15:40.890Z,100647.66
2023-04-19T03:16:44.301Z,100654.52
2023-04-19T03:17:47.310Z,100647.50
2023-04-19T03:18:50.716Z,100650.13
2023-04-19T03:19:56.743Z,100648.84
2023-04-19T03:20:59.737Z,100646.61
2023-04-19T03:22:04.857Z,100649.23
2023-04-19T03:23:08.304Z,100646.15
2023-04-19T03:24:11.239Z,100648.40
2023-04-19T03:25:16.072Z,100642.00
2023-04-19T03:26:20.826Z,100647.95
2023-04-19T03:27:26.928Z,100647.52
2023-04-19T03:28:35.027Z,100644.23
2023-04-19T03:29:48.998Z,100638.67
2023-04-19T03:30:52.240Z,100641.60
2023-04-19T03:31:55.240Z,100638.98
2023-04-19T03:33:00.124Z,100638.79
2023-04-19T03:34:03.566Z,100637.43
2023-04-19T03:35:11.396Z,100641.23
2023-04-19T03:36:14.993Z,100637.31
2023-04-19T03:37:19.227Z,100639.26
2023-04-19T03:38:22.918Z,100638.32
2023-04-19T03:39:26.414Z,100625.72
2023-04-19T03:40:38.085Z,100636.24
2023-04-19T03:41:41.204Z,100637.27
2023-04-19T03:42:53.210Z,100632.23
2023-04-19T03:44:06.086Z,100626.98
2023-04-19T03:45:10.356Z,100631.80
2023-04-19T03:46:16.728Z,100632.77
2023-04-19T03:47:20.061Z,100624.29
2023-04-19T03:48:24.479Z,100626.80
2023-04-19T03:49:27.603Z,100624.30
2023-04-19T03:50:39.101Z,100622.09
2023-04-19T03:51:42.091Z,100623.38
2023-04-19T03:52:45.104Z,100622.41
2023-04-19T03:53:48.534Z,100620.02
2023-04-19T03:54:53.335Z,100623.80
2023-04-19T03:56:16.424Z,100619.77
2023-04-19T03:57:19.325Z,100626.21
2023-04-19T03:58:22.685Z,100618.89
2023-04-19T03:59:36.825Z,100617.11
2023-04-19T04:00:39.710Z,100618.21
2023-04-19T04:01:43.045Z,100622.08
2023-04-19T04:02:46.433Z,100620.63
2023-04-19T04:03:49.716Z,100618.70
2023-04-19T04:04:55.280Z,100620.58
2023-04-19T04:05:59.025Z,100615.30
2023-04-19T04:07:02.561Z,100622.73
2023-04-19T04:08:05.729Z,100617.88
2023-04-19T04:09:08.772Z,100619.94
2023-04-19T04:10:11.714Z,100609.14
2023-04-19T04:11:18.448Z,100617.04
2023-04-19T04:12:23.620Z,100615.33
2023-04-19T04:13:30.420Z,100611.29
2023-04-19T04:14:41.684Z,100614.23
2023-04-19T04:15:44.889Z,100622.13
2023-04-19T04:16:48.330Z,100613.64
2023-04-19T04:17:51.767Z,100611.91
2023-04-19T04:18:55.687Z,100613.79
2023-04-19T04:20:01.408Z,100614.63
2023-04-19T04:21:06.140Z,100614.97
2023-04-19T04:22:10.995Z,100608.86
2023-04-19T04:23:16.727Z,100612.70
2023-04-19T04:24:23.430Z,100620.34
2023-04-19T04:26:01.750Z,100609.79
2023-04-19T04:27:23.920Z,100605.26
2023-04-19T04:28:29.548Z,100611.52
2023-04-19T04:29:33.327Z,100613.23
2023-04-19T04:30:37.671Z,100614.66
2023-04-19T04:31:41.215Z,100615.89
2023-04-19T04:32:45.097Z,100613.34
2023-04-19T04:33:48.144Z,100610.59
2023-04-19T04:34:51.400Z,100611.08
2023-04-19T04:36:02.898Z,100616.43
2023-04-19T04:37:08.961Z,100611.42
2023-04-19T04:38:23.554Z,100613.69
2023-04-19T04:39:27.625Z,100607.59
2023-04-19T04:40:30.773Z,100614.13
2023-04-19T04:41:36.033Z,100612.84
2023-04-19T04:42:40.925Z,100618.02
2023-04-19T04:43:45.678Z,100611.15
2023-04-19T04:44:51.079Z,100617.13
2023-04-19T04:45:56.996Z,100617.50
2023-04-19T04:47:00.833Z,100615.32
2023-04-19T04:48:04.207Z,100610.40
2023-04-19T04:49:07.756Z,100604.52
2023-04-19T04:50:10.998Z,100614.05
2023-04-19T04:51:13.904Z,100612.16
2023-04-19T04:52:17.514Z,100607.85
2023-04-19T04:53:33.747Z,100603.89
2023-04-19T04:54:38.538Z,100609.67
2023-04-19T04:55:44.229Z,100612.06
2023-04-19T04:56:49.700Z,100608.70
2023-04-19T04:57:52.718Z,100612.00
2023-04-19T04:59:04.797Z,100613.25
2023-04-19T05:00:12.788Z,100612.45
2023-04-19T05:01:24.803Z,100605.84
2023-04-19T05:02:32.987Z,100604.11
2023-04-19T05:03:36.302Z,100606.69
2023-04-19T05:04:41.032Z,100607.98
2023-04-19T05:05:45.230Z,100609.04
2023-04-19T05:06:48.320Z,100606.05
2023-04-19T05:07:56.228Z,100603.03
2023-04-19T05:08:59.067Z,100605.59
2023-04-19T05:10:11.608Z,100601.79
2023-04-19T05:11:21.174Z,100604.53
2023-04-19T05:12:24.257Z,100601.42
2023-04-19T05:13:27.370Z,100603.57
2023-04-19T05:14:30.761Z,100603.61
2023-04-19T05:15:33.726Z,100598.59
2023-04-19T05:16:50.382Z,100603.02
2023-04-19T05:17:53.860Z,100602.91
2023-04-19T05:18:57.630Z,100597.73
2023-04-19T05:20:01.124Z,100599.10
2023-04-19T05:21:04.591Z,100598.70
2023-04-19T05:22:07.950Z,100598.92
2023-04-19T05:23:12.384Z,100595.04
2023-04-19T05:24:15.914Z,100594.09
2023-04-19T05:25:19.701Z,100587.76
2023-04-19T05:26:23.226Z,100589.21
2023-04-19T05:27:26.541Z,100594.42
2023-04-19T05:28:30.268Z,100592.42
2023-04-19T05:29:46.776Z,100586.42
2023-04-19T05:30:52.339Z,100592.89
2023-04-19T05:31:57.854Z,100588.81
2023-04-19T05:33:05.393Z,100590.05
2023-04-19T05:34:08.604Z,100583.17
2023-04-19T05:35:12.185Z,100588.48
2023-04-19T05:36:15.196Z,100578.52
2023-04-19T05:37:18.296Z,100581.61
2023-04-19T05:38:21.189Z,100579.02
2023-04-19T05:39:24.421Z,100580.54
2023-04-19T05:40:28.521Z,100580.35
2023-04-19T05:41:31.434Z,100578.76
2023-04-19T05:42:34.375Z,100579.63
2023-04-19T05:43:37.744Z,100576.25
2023-04-19T05:44:41.576Z,100581.27
2023-04-19T05:45:44.778Z,100579.11
2023-04-19T05:46:47.908Z,100579.54
2023-04-19T05:47:53.977Z,100575.06
2023-04-19T05:48:59.824Z,100577.52
2023-04-19T05:50:21.613Z,100577.63
2023-04-19T05:51:40.081Z,100575.02
2023-04-19T05:52:47.638Z,100573.88
2023-04-19T05:53:50.584Z,100576.61
2023-04-19T05:54:53.501Z,100573.24
2023-04-19T05:55:56.649Z,100573.44
2023-04-19T05:56:59.547Z,100575.84
2023-04-19T05:58:02.460Z,100571.23
2023-04-19T05:59:05.484Z,100572.40
2023-04-19T06:00:09.815Z,100571.70
2023-04-19T06:01:23.515Z,100569.27
2023-04-19T06:02:26.855Z,100570.59
2023-04-19T06:03:32.023Z,100573.19
2023-04-19T06:04:36.417Z,100571.81
2023-04-19T06:05:41.108Z,100571.90
2023-04-19T06:06:44.207Z,100565.95
2023-04-19T06:07:55.737Z,100570.66
2023-04-19T06:09:04.949Z,100563.26
2023-04-19T06:10:08.508Z,100565.62
2023-04-19T06:11:22.949Z,100564.15
2023-04-19T06:12:29.740Z,100561.41
2023-04-19T06:13:32.722Z,100560.42
2023-04-19T06:14:35.611Z,100558.73
2023-04-19T06:15:40.206Z,100564.00
2023-04-19T06:16:43.331Z,100557.85
2023-04-19T06:17:46.188Z,100557.52
2023-04-19T06:18:49.075Z,100564.52
2023-04-19T06:19:53.101Z,100558.63
2023-04-19T06:20:56.331Z,100557.64
2023-04-19T06:21:59.411Z,100557.37
2023-04-19T06:23:02.336Z,100557.98
2023-04-19T06:24:08.619Z,100563.98
2023-04-19T06:25:12.279Z,100565.39
2023-04-19T06:26:15.208Z,100557.86
2023-04-19T06:27:18.579Z,100557.52
2023-04-19T06:28:21.463Z,100557.26
2023-04-19T06:29:25.892Z,100564.13
2023-04-19T06:30:28.858Z,100566.20
2023-04-19T06:31:32.671Z,100560.70
2023-04-19T06:32:35.903Z,100564.35
2023-04-19T06:33:39.349Z,100567.42
2023-04-19T06:34:42.606Z,100561.54
2023-04-19T06:35:45.581Z,100566.67
2023-04-19T06:36:48.470Z,100566.40
2023-04-19T06:37:52.089Z,100565.69
2023-04-19T06:38:55.082Z,100571.58
2023-04-19T06:39:58.002Z,100571.71
2023-04-19T06:41:00.988Z,100569.81
2023-04-19T06:42:04.167Z,100568.48
2023-04-19T06:43:07.207Z,100572.42
2023-04-19T06:44:10.134Z,100571.99
2023-04-19T06:45:13.100Z,100573.68
2023-04-19T06:46:16.129Z,100575.17
2023-04-19T06:47:19.423Z,100574.90
2023-04-19T06:48:22.274Z,100583.80
2023-04-19T06:49:25.280Z,100581.05
2023-04-19T06:50:29.035Z,100579.88
2023-04-19T06:51:33.201Z,100572.30
2023-04-19T06:52:36.070Z,100577.88
2023-04-19T06:53:39.174Z,100575.24
2023-04-19T06:54:42.094Z,100581.09
2023-04-19T06:55:46.003Z,100581.72
2023-04-19T06:56:50.276Z,100575.95
2023-04-19T06:57:53.209Z,100579.40
2023-04-19T06:58:56.062Z,100575.42
2023-04-19T07:00:00.236Z,100583.71
2023-04-19T07:01:04.642Z,100583.16
2023-04-19T07:02:14.027Z,100585.50
2023-04-19T07:03:17.121Z,100583.05
2023-04-19T07:04:20.418Z,100581.16
2023-04-19T07:05:23.633Z,100579.62
2023-04-19T07:06:27.005Z,100581.05
2023-04-19T07:07:29.950Z,100582.05
2023-04-19T07:08:48.287Z,100583.48
2023-04-19T07:09:51.953Z,100575.66
2023-04-19T07:10:56.702Z,100578.91
2023-04-19T07:11:59.560Z,100578.10
2023-04-19T07:13:02.444Z,100581.16
2023-04-19T07:14:05.884Z,100574.77
2023-04-19T07:15:09.418Z,100581.27
2023-04-19T07:16:13.344Z,100581.02
2023-04-19T07:17:18.311Z,100581.77
2023-04-19T07:18:21.245Z,100578.53
2023-04-19T07:19:24.442Z,100578.63
2023-04-19T07:20:27.468Z,100579.98
2023-04-19T07:21:33.506Z,100575.19
2023-04-19T07:22:36.595Z,100574.90
2023-04-19T07:23:39.590Z,100574.38
2023-04-19T07:24:44.642Z,100576.11
2023-04-19T07:25:47.527Z,100575.82
2023-04-19T07:26:50.512Z,100574.54
2023-04-19T07:27:54.995Z,100570.63
2023-04-19T07:28:58.406Z,100575.30
2023-04-19T07:30:01.245Z,100571.05
2023-04-19T07:31:04.270Z,100573.80
2023-04-19T07:32:07.234Z,100574.83
2023-04-19T07:33:10.324Z,100576.70
2023-04-19T07:34:13.261Z,100579.47
2023-04-19T07:35:16.198Z,100581.06
2023-04-19T07:36:19.256Z,100584.36
2023-04-19T07:37:22.774Z,100576.46
2023-04-19T07:38:25.652Z,100579.13
2023-04-19T07:39:28.546Z,100574.98
2023-04-19T07:40:31.402Z,100576.30
2023-04-19T07:41:35.919Z,100573.55
2023-04-19T07:42:39.428Z,100577.28
2023-04-19T07:43:42.370Z,100576.91
2023-04-19T07:44:45.307Z,100576.17
2023-04-19T07:45:48.266Z,100574.09
2023-04-19T07:46:51.236Z,100575.02
2023-04-19T07:47:54.208Z,100573.25
2023-04-19T07:48:57.270Z,100576.90
2023-04-19T07:50:00.305Z,100579.52
2023-04-19T07:51:13.921Z,100577.09
2023-04-19T07:52:18.942Z,100575.73
2023-04-19T07:53:21.893Z,100575.48
2023-04-19T07:54:24.861Z,100575.23
2023-04-19T07:55:27.818Z,100577.56
2023-04-19T07:56:30.886Z,100579.48
2023-04-19T07:57:35.688Z,100575.48
2023-04-19T07:58:42.260Z,100575.31
2023-04-19T07:59:45.919Z,100577.85
2023-04-19T08:00:48.955Z,100582.61
2023-04-19T08:01:52.068Z,100582.66
2023-04-19T08:02:55.055Z,100580.57
2023-04-19T08:03:58.380Z,100579.88
2023-04-19T08:05:02.612Z,100578.29
2023-04-19T08:06:08.267Z,100576.86
2023-04-19T08:07:11.263Z,100576.75
2023-04-19T08:08:14.129Z,100574.85
2023-04-19T08:09:17.053Z,100574.30
2023-04-19T08:10:22.222Z,100571.98
2023-04-19T08:11:25.464Z,100579.59
2023-04-19T08:12:35.097Z,100570.20
2023-04-19T08:13:42.148Z,100568.52
2023-04-19T08:15:01.552Z,100578.35
2023-04-19T08:16:27.202Z,100567.91
2023-04-19T08:18:38.053Z,100568.15
2023-04-19T08:19:41.039Z,100569.84
2023-04-19T08:20:43.929Z,100573.61
2023-04-19T08:21:46.886Z,100566.89
2023-04-19T08:22:49.842Z,100569.61
2023-04-19T08:23:54.470Z,100567.11
2023-04-19T08:24:57.418Z,100567.08
2023-04-19T08:26:00.432Z,100567.71
2023-04-19T08:27:03.366Z,100566.46
2023-04-19T08:28:06.651Z,100567.61
2023-04-19T08:29:09.677Z,100569.96
2023-04-19T08:30:13.067Z,100574.02
2023-04-19T08:31:16.040Z,100569.48
2023-04-19T08:32:18.946Z,100566.63
2023-04-19T08:33:22.443Z,100570.61
2023-04-19T08:34:25.498Z,100566.67
2023-04-19T08:35:28.377Z,100568.88
2023-04-19T08:36:39.116Z,100561.30
2023-04-19T08:37:44.171Z,100560.50
2023-04-19T08:38:54.838Z,100562.92
2023-04-19T08:40:06.115Z,100559.58
2023-04-19T08:41:11.611Z,100564.06
2023-04-19T08:42:28.901Z,100565.38
2023-04-19T08:43:39.262Z,100564.29
2023-04-19T08:44:59.694Z,100567.16
2023-04-19T08:46:08.703Z,100559.80
2023-04-19T08:47:17.697Z,100573.72
2023-04-19T08:48:33.812Z,100565.23
2023-04-19T08:49:37.822Z,100571.11
2023-04-19T08:50:56.417Z,100564.14
2023-04-19T08:52:08.304Z,100563.84
2023-04-19T08:54:18.508Z,100572.63
2023-04-19T08:55:21.580Z,100576.52
2023-04-19T08:56:34.952Z,100575.79
2023-04-19T08:57:38.813Z,100566.42
2023-04-19T08:59:00.470Z,100577.77
2023-04-19T09:00:10.676Z,100570.08
2023-04-19T09:01:22.948Z,100572.46
2023-04-19T09:02:50.969Z,100562.99
2023-04-19T09:04:04.922Z,100565.50
2023-04-19T09:05:19.151Z,100565.65
2023-04-19T09:06:22.415Z,100564.14
2023-04-19T09:07:27.695Z,100569.83
2023-04-19T09:08:31.548Z,100566.38
2023-04-19T09:09:43.099Z,100568.89
2023-04-19T09:10:57.072Z,100557.05
2023-04-19T09:12:00.746Z,100562.73
2023-04-19T09:13:05.725Z,100569.71
2023-04-19T09:14:16.416Z,100559.52
2023-04-19T09:15:36.254Z,100566.86
2023-04-19T09:16:39.503Z,100564.75
2023-04-19T09:17:42.596Z,100569.67
2023-04-19T09:19:08.221Z,100569.34
2023-04-19T09:20:36.331Z,100564.67
2023-04-19T09:21:39.958Z,100565.42
2023-04-19T09:22:42.878Z,100570.70
2023-04-19T09:23:48.577Z,100573.27
2023-04-19T09:26:22.023Z,100575.15
2023-04-19T09:27:30.892Z,100575.66
2023-04-19T09:28:33.654Z,100576.77
2023-04-19T09:29:36.526Z,100577.08
2023-04-19T09:30:54.800Z,100576.83
2023-04-19T09:32:03.497Z,100578.67
2023-04-19T09:33:07.986Z,100582.90
2023-04-19T09:34:15.643Z,100575.27
2023-04-19T09:35:19.006Z,100572.48
2023-04-19T09:36:32.949Z,100573.80
2023-04-19T09:38:49.479Z,100575.55
2023-04-19T09:39:53.307Z,100568.30
2023-04-19T09:41:07.827Z,100570.92
2023-04-19T09:42:10.862Z,100569.02
2023-04-19T09:43:49.708Z,100579.69
2023-04-19T09:45:25.431Z,100574.24
2023-04-19T09:46:35.100Z,100572.04
2023-04-19T09:47:38.023Z,100575.65
2023-04-19T09:48:40.910Z,100575.10
2023-04-19T09:49:49.040Z,100576.61
2023-04-19T09:50:58.331Z,100579.45
2023-04-19T09:52:04.130Z,100582.81
2023-04-19T09:53:07.429Z,100583.13
2023-04-19T09:54:11.586Z,100581.25
2023-04-19T09:55:25.813Z,100584.29
2023-04-19T09:56:30.697Z,100584.55
2023-04-19T09:57:34.943Z,100580.65
2023-04-19T09:58:49.473Z,100579.45
2023-04-19T09:59:53.833Z,100578.98
2023-04-19T10:01:10.594Z,100580.38
2023-04-19T10:02:17.924Z,100574.83
2023-04-19T10:03:22.208Z,100574.56
2023-04-19T10:04:43.537Z,100575.55
2023-04-19T10:05:50.787Z,100569.48
2023-04-19T10:07:19.450Z,100575.67
2023-04-19T10:08:27.040Z,100574.07
2023-04-19T10:09:55.045Z,100580.84
2023-04-19T10:11:01.225Z,100575.41
2023-04-19T10:12:16.106Z,100582.08
2023-04-19T10:13:29.412Z,100579.84
2023-04-19T10:14:36.304Z,100580.20
2023-04-19T10:17:12.443Z,100573.31
2023-04-19T10:18:15.821Z,100575.27
2023-04-19T10:19:21.828Z,100577.45
2023-04-19T10:20:37.727Z,100574.82
2023-04-19T10:21:43.266Z,100575.26
2023-04-19T10:22:46.596Z,100574.74
2023-04-19T10:23:49.797Z,100584.11
2023-04-19T10:25:28.103Z,100575.73
2023-04-19T10:26:31.069Z,100579.15
2023-04-19T10:27:35.034Z,100585.42
2023-04-19T10:28:38.256Z,100585.19
2023-04-19T10:29:53.628Z,100584.59
2023-04-19T10:31:04.839Z,100588.16
2023-04-19T10:32:13.670Z,100591.78
2023-04-19T10:33:25.424Z,100592.47
2023-04-19T10:34:37.967Z,100591.90
2023-04-19T10:35:44.750Z,100592.54
2023-04-19T10:36:47.629Z,100597.45
2023-04-19T10:38:12.995Z,100595.50
2023-04-19T10:39:41.565Z,100599.21
2023-04-19T10:41:01.837Z,100599.10
2023-04-19T10:42:04.976Z,100599.50
2023-04-19T10:43:13.653Z,100600.26
2023-04-19T10:44:16.626Z,100601.11
2023-04-19T10:45:34.289Z,100600.82
2023-04-19T10:46:40.911Z,100604.88
2023-04-19T10:47:46.720Z,100603.25
2023-04-19T10:49:14.119Z,100603.89
2023-04-19T10:50:17.931Z,100598.71
2023-04-19T10:51:28.088Z,100595.79
2023-04-19T10:52:30.955Z,100597.00
2023-04-19T10:53:47.965Z,100598.73
2023-04-19T10:54:57.082Z,100595.15
2023-04-19T10:55:59.974Z,100594.63
2023-04-19T10:57:04.683Z,100603.41
2023-04-19T10:58:07.889Z,100603.04
2023-04-19T10:59:21.678Z,100604.63
2023-04-19T11:00:25.805Z,100603.20
2023-04-19T11:01:46.968Z,100602.98
2023-04-19T11:02:50.069Z,100603.81
2023-04-19T11:03:53.396Z,100609.56
2023-04-19T11:04:56.597Z,100601.80
2023-04-19T11:06:20.244Z,100607.46
2023-04-19T11:07:29.477Z,100598.70
2023-04-19T11:08:32.593Z,100598.88
2023-04-19T11:09:42.576Z,100601.20
2023-04-19T11:10:45.709Z,100599.62
2023-04-19T11:11:48.597Z,100599.89
2023-04-19T11:12:51.782Z,100603.27
2023-04-19T11:14:02.553Z,100603.91
2023-04-19T11:15:06.440Z,100600.79
2023-04-19T11:16:10.336Z,100606.92
2023-04-19T11:17:20.643Z,100604.92
2023-04-19T11:18:30.051Z,100601.41
2023-04-19T11:19:33.020Z,100602.63
2023-04-19T11:20:35.923Z,100609.27
2023-04-19T11:21:41.937Z,100611.27
2023-04-19T11:22:47.533Z,100608.42
2023-04-19T11:24:06.231Z,100604.52
2023-04-19T11:25:13.326Z,100599.77
2023-04-19T11:26:19.388Z,100604.83
2023-04-19T11:27:22.405Z,100605.36
2023-04-19T11:28:25.442Z,100606.77
2023-04-19T11:29:28.348Z,100608.23
2023-04-19T11:30:32.006Z,100610.88
2023-04-19T11:31:35.396Z,100606.26
2023-04-19T11:32:44.299Z,100608.50
2023-04-19T11:33:47.504Z,100604.31
2023-04-19T11:34:50.368Z,100602.10
2023-04-19T11:35:53.734Z,100611.95
2023-04-19T11:36:56.622Z,100608.21
2023-04-19T11:37:59.819Z,100606.69
2023-04-19T11:39:06.407Z,100604.73
2023-04-19T11:40:09.814Z,100610.27
2023-04-19T11:41:12.931Z,100604.63
2023-04-19T11:42:20.585Z,100606.94
2023-04-19T11:43:23.476Z,100606.23
2023-04-19T11:44:26.542Z,100599.84
2023-04-19T11:45:33.128Z,100604.52
2023-04-19T11:46:38.683Z,100597.95
2023-04-19T11:47:49.058Z,100604.46
2023-04-19T11:48:53.385Z,100597.78
2023-04-19T11:49:56.703Z,100604.74
2023-04-19T11:51:00.774Z,100607.94
2023-04-19T11:52:06.661Z,100606.36
2023-04-19T11:53:23.759Z,100600.38
2023-04-19T11:54:27.555Z,100594.33
2023-04-19T11:55:33.812Z,100605.23
2023-04-19T11:56:36.740Z,100595.06
2023-04-19T11:57:41.828Z,100600.29
2023-04-19T11:58:48.452Z,100595.98
2023-04-19T12:00:12.159Z,100595.91
2023-04-19T12:01:15.416Z,100592.16
2023-04-19T12:02:18.383Z,100605.69
2023-04-19T12:03:26.495Z,100601.56
2023-04-19T12:04:30.405Z,100596.62
2023-04-19T12:05:33.838Z,100595.00
2023-04-19T12:06:37.385Z,100598.80
2023-04-19T12:08:03.072Z,100599.02
2023-04-19T12:09:09.422Z,100597.86
2023-04-19T12:10:12.814Z,100599.58
2023-04-19T12:11:18.858Z,100607.90
2023-04-19T12:12:33.609Z,100601.25
2023-04-19T12:13:37.045Z,100597.28
2023-04-19T12:14:52.360Z,100602.39
2023-04-19T12:15:55.998Z,100598.98
2023-04-19T12:17:14.566Z,100599.30
2023-04-19T12:18:17.619Z,100601.22
2023-04-19T12:19:20.752Z,100600.69
2023-04-19T12:20:32.827Z,100599.08
2023-04-19T12:21:35.726Z,100602.73
2023-04-19T12:22:38.562Z,100601.25
2023-04-19T12:23:41.552Z,100602.71
2023-04-19T12:24:44.397Z,100598.75
2023-04-19T12:25:48.758Z,100603.98
2023-04-19T12:26:56.958Z,100605.11
2023-04-19T12:28:03.157Z,100606.63
2023-04-19T12:29:06.166Z,100609.60
2023-04-19T12:30:09.961Z,100611.49
2023-04-19T12:31:12.853Z,100612.45
2023-04-19T12:32:16.123Z,100611.00
2023-04-19T12:33:19.167Z,100612.33
2023-04-19T12:34:22.047Z,100615.14
2023-04-19T12:35:27.696Z,100614.56
2023-04-19T12:36:30.703Z,100615.90